CES8888 ZSPD-ZSNB
Flight info
| Callsign | CES8888 |
|---|---|
| Flight time | 0h 33m |
| Altitude | 7900 |
| Route | AND91D AND AND81A |
| Aircraft | C919/M-SDE2E3FGHIRWXY/LB1 |
Departure
| Time | 2026-05-08 11:13 |
|---|---|
| Airport | Shanghai Pudong International Airport (ZSPD) |
Arrival
| Time | 2026-05-08 11:46 |
|---|---|
| Airport | Ningbo Lishe International Airport (ZSNB) |
| Time | Latitude | Longitude | Altitude | Speed | Heading |
|---|---|---|---|---|---|
| 2026-05-08 11:10 | 31.12970 | 121.80251 | 25 ft | 0 kts | 252° |
| 2026-05-08 11:10 | 31.12968 | 121.80244 | 25 ft | 4 kts | 252° |
| 2026-05-08 11:11 | 31.12951 | 121.80181 | 25 ft | 12 kts | 252° |
| 2026-05-08 11:11 | 31.12884 | 121.80151 | 25 ft | 13 kts | 162° |
| 2026-05-08 11:11 | 31.12795 | 121.80157 | 28 ft | 15 kts | 217° |
| 2026-05-08 11:11 | 31.12752 | 121.80045 | 28 ft | 13 kts | 251° |
| 2026-05-08 11:12 | 31.12729 | 121.79967 | 27 ft | 8 kts | 250° |
| 2026-05-08 11:12 | 31.12715 | 121.79917 | 26 ft | 7 kts | 255° |
| 2026-05-08 11:12 | 31.12740 | 121.79876 | 26 ft | 2 kts | 339° |
| 2026-05-08 11:13 | 31.12792 | 121.79856 | 24 ft | 26 kts | 342° |
| 2026-05-08 11:13 | 31.13359 | 121.79642 | 27 ft | 137 kts | 342° |
| 2026-05-08 11:13 | 31.14467 | 121.79234 | 507 ft | 178 kts | 345° |
| 2026-05-08 11:13 | 31.15711 | 121.78794 | 1038 ft | 174 kts | 346° |
| 2026-05-08 11:14 | 31.16724 | 121.78418 | 1448 ft | 131 kts | 342° |
| 2026-05-08 11:14 | 31.17537 | 121.78022 | 1872 ft | 129 kts | 340° |
| 2026-05-08 11:14 | 31.18430 | 121.77584 | 2466 ft | 151 kts | 340° |
| 2026-05-08 11:14 | 31.19478 | 121.77077 | 3009 ft | 178 kts | 341° |
| 2026-05-08 11:15 | 31.20716 | 121.76521 | 3546 ft | 205 kts | 341° |
| 2026-05-08 11:15 | 31.22163 | 121.75910 | 4028 ft | 234 kts | 341° |
| 2026-05-08 11:15 | 31.23804 | 121.75244 | 4576 ft | 261 kts | 341° |
| 2026-05-08 11:15 | 31.25556 | 121.74558 | 5080 ft | 267 kts | 341° |
| 2026-05-08 11:16 | 31.27310 | 121.73892 | 5555 ft | 269 kts | 341° |
| 2026-05-08 11:16 | 31.29088 | 121.73181 | 6053 ft | 269 kts | 332° |
| 2026-05-08 11:16 | 31.30456 | 121.71752 | 6566 ft | 267 kts | 301° |
| 2026-05-08 11:16 | 31.30982 | 121.69719 | 7040 ft | 266 kts | 270° |
| 2026-05-08 11:17 | 31.30604 | 121.67591 | 7546 ft | 269 kts | 253° |
| 2026-05-08 11:17 | 31.30035 | 121.65503 | 7827 ft | 269 kts | 253° |
| 2026-05-08 11:17 | 31.29465 | 121.63413 | 7894 ft | 269 kts | 253° |
| 2026-05-08 11:17 | 31.28894 | 121.61325 | 7888 ft | 270 kts | 253° |
| 2026-05-08 11:18 | 31.28318 | 121.59269 | 7887 ft | 270 kts | 253° |
| 2026-05-08 11:18 | 31.27744 | 121.57190 | 7891 ft | 270 kts | 253° |
| 2026-05-08 11:18 | 31.27168 | 121.55084 | 7889 ft | 271 kts | 253° |
| 2026-05-08 11:18 | 31.26568 | 121.52990 | 7870 ft | 271 kts | 246° |
| 2026-05-08 11:19 | 31.25395 | 121.51307 | 7893 ft | 277 kts | 217° |
| 2026-05-08 11:19 | 31.23681 | 121.50533 | 7894 ft | 283 kts | 188° |
| 2026-05-08 11:19 | 31.21653 | 121.50878 | 7897 ft | 289 kts | 162° |
| 2026-05-08 11:19 | 31.19786 | 121.51693 | 7888 ft | 289 kts | 161° |
| 2026-05-08 11:20 | 31.17950 | 121.52633 | 7887 ft | 290 kts | 150° |
| 2026-05-08 11:20 | 31.16318 | 121.54046 | 7891 ft | 291 kts | 144° |
| 2026-05-08 11:20 | 31.14661 | 121.55417 | 7891 ft | 291 kts | 148° |
| 2026-05-08 11:20 | 31.12888 | 121.56552 | 7888 ft | 290 kts | 157° |
| 2026-05-08 11:21 | 31.11021 | 121.57450 | 7891 ft | 289 kts | 161° |
| 2026-05-08 11:21 | 31.09147 | 121.58256 | 7888 ft | 289 kts | 161° |
| 2026-05-08 11:21 | 31.07256 | 121.59067 | 7889 ft | 290 kts | 161° |
| 2026-05-08 11:21 | 31.05358 | 121.59874 | 7886 ft | 289 kts | 161° |
| 2026-05-08 11:22 | 31.03464 | 121.60677 | 7886 ft | 289 kts | 161° |
| 2026-05-08 11:22 | 31.01567 | 121.61478 | 7888 ft | 289 kts | 161° |
| 2026-05-08 11:22 | 30.99668 | 121.62276 | 7886 ft | 289 kts | 161° |
| 2026-05-08 11:22 | 30.97773 | 121.63069 | 7885 ft | 289 kts | 161° |
| 2026-05-08 11:23 | 30.95910 | 121.63845 | 7885 ft | 289 kts | 161° |
| 2026-05-08 11:23 | 30.94008 | 121.64634 | 7887 ft | 290 kts | 161° |
| 2026-05-08 11:23 | 30.92103 | 121.65421 | 7886 ft | 290 kts | 161° |
| 2026-05-08 11:23 | 30.90199 | 121.66206 | 7886 ft | 289 kts | 161° |
| 2026-05-08 11:24 | 30.88298 | 121.66986 | 7885 ft | 289 kts | 161° |
| 2026-05-08 11:24 | 30.86402 | 121.67761 | 7883 ft | 289 kts | 161° |
| 2026-05-08 11:24 | 30.84518 | 121.68529 | 7883 ft | 289 kts | 161° |
| 2026-05-08 11:24 | 30.82606 | 121.69304 | 7884 ft | 289 kts | 161° |
| 2026-05-08 11:25 | 30.80707 | 121.70070 | 7882 ft | 289 kts | 161° |
| 2026-05-08 11:25 | 30.78809 | 121.70833 | 7882 ft | 289 kts | 162° |
| 2026-05-08 11:25 | 30.76841 | 121.71114 | 7889 ft | 287 kts | 189° |
| 2026-05-08 11:25 | 30.75049 | 121.70270 | 7883 ft | 284 kts | 217° |
| 2026-05-08 11:26 | 30.73472 | 121.68890 | 7881 ft | 284 kts | 218° |
| 2026-05-08 11:26 | 30.71881 | 121.67483 | 7712 ft | 284 kts | 218° |
| 2026-05-08 11:26 | 30.70313 | 121.66089 | 7603 ft | 285 kts | 218° |
| 2026-05-08 11:26 | 30.68736 | 121.64682 | 7485 ft | 284 kts | 218° |
| 2026-05-08 11:27 | 30.67167 | 121.63278 | 7390 ft | 284 kts | 218° |
| 2026-05-08 11:27 | 30.65602 | 121.61875 | 7290 ft | 284 kts | 218° |
| 2026-05-08 11:27 | 30.64053 | 121.60482 | 7192 ft | 284 kts | 218° |
| 2026-05-08 11:27 | 30.62493 | 121.59075 | 7103 ft | 284 kts | 218° |
| 2026-05-08 11:28 | 30.60930 | 121.57657 | 7011 ft | 284 kts | 220° |
| 2026-05-08 11:28 | 30.59425 | 121.56170 | 6905 ft | 284 kts | 221° |
| 2026-05-08 11:28 | 30.57932 | 121.54666 | 6802 ft | 284 kts | 221° |
| 2026-05-08 11:28 | 30.56451 | 121.53168 | 6715 ft | 284 kts | 221° |
| 2026-05-08 11:29 | 30.54965 | 121.51662 | 6619 ft | 284 kts | 221° |
| 2026-05-08 11:29 | 30.53473 | 121.50146 | 6546 ft | 284 kts | 221° |
| 2026-05-08 11:29 | 30.51988 | 121.48631 | 6491 ft | 285 kts | 221° |
| 2026-05-08 11:29 | 30.50497 | 121.47110 | 6423 ft | 285 kts | 221° |
| 2026-05-08 11:30 | 30.49012 | 121.45596 | 6359 ft | 285 kts | 221° |
| 2026-05-08 11:30 | 30.47540 | 121.44092 | 6291 ft | 284 kts | 221° |
| 2026-05-08 11:30 | 30.46054 | 121.42571 | 6228 ft | 284 kts | 221° |
| 2026-05-08 11:30 | 30.44577 | 121.41054 | 6161 ft | 284 kts | 221° |
| 2026-05-08 11:31 | 30.43095 | 121.39530 | 6100 ft | 284 kts | 221° |
| 2026-05-08 11:31 | 30.41618 | 121.38007 | 6032 ft | 283 kts | 221° |
| 2026-05-08 11:31 | 30.40186 | 121.36531 | 5970 ft | 283 kts | 221° |
| 2026-05-08 11:31 | 30.38693 | 121.34989 | 5910 ft | 283 kts | 221° |
| 2026-05-08 11:32 | 30.37227 | 121.33474 | 5870 ft | 283 kts | 221° |
| 2026-05-08 11:32 | 30.35752 | 121.31954 | 5867 ft | 283 kts | 221° |
| 2026-05-08 11:32 | 30.34288 | 121.30440 | 5866 ft | 279 kts | 221° |
| 2026-05-08 11:32 | 30.32895 | 121.28996 | 5862 ft | 260 kts | 221° |
| 2026-05-08 11:33 | 30.31579 | 121.27634 | 5873 ft | 252 kts | 221° |
| 2026-05-08 11:33 | 30.30281 | 121.26286 | 5869 ft | 251 kts | 222° |
| 2026-05-08 11:33 | 30.28959 | 121.24978 | 5870 ft | 250 kts | 218° |
| 2026-05-08 11:33 | 30.27590 | 121.23734 | 5871 ft | 250 kts | 218° |
| 2026-05-08 11:34 | 30.26227 | 121.22525 | 5870 ft | 250 kts | 215° |
| 2026-05-08 11:34 | 30.24786 | 121.21405 | 5867 ft | 249 kts | 213° |
| 2026-05-08 11:34 | 30.23342 | 121.20311 | 5867 ft | 249 kts | 213° |
| 2026-05-08 11:34 | 30.21940 | 121.19249 | 5864 ft | 232 kts | 213° |
| 2026-05-08 11:35 | 30.20601 | 121.18231 | 5869 ft | 228 kts | 213° |
| 2026-05-08 11:35 | 30.19279 | 121.17223 | 5869 ft | 228 kts | 213° |
| 2026-05-08 11:35 | 30.17979 | 121.16230 | 5870 ft | 228 kts | 213° |
| 2026-05-08 11:35 | 30.16641 | 121.15208 | 5872 ft | 228 kts | 213° |
| 2026-05-08 11:36 | 30.15315 | 121.14196 | 5871 ft | 228 kts | 213° |
| 2026-05-08 11:36 | 30.13989 | 121.13184 | 5873 ft | 228 kts | 213° |
| 2026-05-08 11:36 | 30.12668 | 121.12173 | 5873 ft | 228 kts | 213° |
| 2026-05-08 11:36 | 30.11342 | 121.11155 | 5873 ft | 229 kts | 213° |
| 2026-05-08 11:37 | 30.10020 | 121.10142 | 5873 ft | 228 kts | 213° |
| 2026-05-08 11:37 | 30.08713 | 121.09140 | 5872 ft | 228 kts | 213° |
| 2026-05-08 11:37 | 30.07375 | 121.08141 | 5871 ft | 228 kts | 210° |
| 2026-05-08 11:37 | 30.05915 | 121.07489 | 5868 ft | 224 kts | 180° |
| 2026-05-08 11:38 | 30.04378 | 121.07723 | 5862 ft | 221 kts | 155° |
| 2026-05-08 11:38 | 30.03022 | 121.08534 | 5855 ft | 219 kts | 136° |
| 2026-05-08 11:38 | 30.02103 | 121.09917 | 5876 ft | 217 kts | 121° |
| 2026-05-08 11:38 | 30.01364 | 121.11392 | 5862 ft | 207 kts | 115° |
| 2026-05-08 11:39 | 30.00744 | 121.12818 | 5900 ft | 195 kts | 115° |
| 2026-05-08 11:39 | 30.00130 | 121.14200 | 5865 ft | 193 kts | 108° |
| 2026-05-08 11:39 | 29.99777 | 121.15648 | 5877 ft | 192 kts | 104° |
| 2026-05-08 11:39 | 29.99256 | 121.17115 | 5810 ft | 194 kts | 116° |
| 2026-05-08 11:40 | 29.98544 | 121.18412 | 5668 ft | 193 kts | 122° |
| 2026-05-08 11:40 | 29.97779 | 121.19682 | 5439 ft | 193 kts | 122° |
| 2026-05-08 11:40 | 29.97032 | 121.20960 | 5199 ft | 191 kts | 121° |
| 2026-05-08 11:40 | 29.96305 | 121.22244 | 4946 ft | 190 kts | 120° |
| 2026-05-08 11:41 | 29.95586 | 121.23512 | 4674 ft | 189 kts | 120° |
| 2026-05-08 11:41 | 29.94865 | 121.24783 | 4399 ft | 188 kts | 121° |
| 2026-05-08 11:41 | 29.94158 | 121.26028 | 4153 ft | 187 kts | 120° |
| 2026-05-08 11:41 | 29.93447 | 121.27278 | 3896 ft | 186 kts | 120° |
| 2026-05-08 11:42 | 29.92741 | 121.28521 | 3642 ft | 185 kts | 120° |
| 2026-05-08 11:42 | 29.92042 | 121.29750 | 3383 ft | 183 kts | 120° |
| 2026-05-08 11:42 | 29.91342 | 121.30980 | 3134 ft | 182 kts | 120° |
| 2026-05-08 11:42 | 29.90693 | 121.32118 | 2865 ft | 162 kts | 120° |
| 2026-05-08 11:43 | 29.90098 | 121.33158 | 2620 ft | 146 kts | 120° |
| 2026-05-08 11:43 | 29.89569 | 121.34093 | 2420 ft | 138 kts | 120° |
| 2026-05-08 11:43 | 29.89046 | 121.35021 | 2212 ft | 136 kts | 120° |
| 2026-05-08 11:43 | 29.88529 | 121.35928 | 2048 ft | 136 kts | 120° |
| 2026-05-08 11:44 | 29.88005 | 121.36849 | 1869 ft | 137 kts | 120° |
| 2026-05-08 11:44 | 29.87480 | 121.37774 | 1664 ft | 137 kts | 120° |
| 2026-05-08 11:44 | 29.86963 | 121.38681 | 1492 ft | 136 kts | 121° |
| 2026-05-08 11:44 | 29.86445 | 121.39592 | 1264 ft | 136 kts | 121° |
| 2026-05-08 11:45 | 29.85926 | 121.40505 | 1056 ft | 137 kts | 121° |
| 2026-05-08 11:45 | 29.85406 | 121.41422 | 839 ft | 137 kts | 122° |
| 2026-05-08 11:45 | 29.84882 | 121.42341 | 635 ft | 137 kts | 122° |
| 2026-05-08 11:45 | 29.84354 | 121.43260 | 421 ft | 137 kts | 121° |
| 2026-05-08 11:46 | 29.83843 | 121.44170 | 237 ft | 137 kts | 122° |
| 2026-05-08 11:46 | 29.83318 | 121.45089 | 40 ft | 136 kts | 122° |
| 2026-05-08 11:46 | 29.82854 | 121.45893 | 22 ft | 94 kts | 123° |
| 2026-05-08 11:46 | 29.82616 | 121.46313 | 21 ft | 31 kts | 124° |
| 2026-05-08 11:47 | 29.82472 | 121.46492 | 22 ft | 18 kts | 142° |
| 2026-05-08 11:47 | 29.82378 | 121.46560 | 22 ft | 3 kts | 148° |
| 2026-05-08 11:47 | 29.82341 | 121.46573 | 20 ft | 9 kts | 187° |
| 2026-05-08 11:47 | 29.82274 | 121.46511 | 20 ft | 16 kts | 221° |
| 2026-05-08 11:48 | 29.82250 | 121.46452 | 19 ft | 8 kts | 289° |
| 2026-05-08 11:48 | 29.82292 | 121.46377 | 21 ft | 13 kts | 303° |
| 2026-05-08 11:48 | 29.82320 | 121.46294 | 19 ft | 11 kts | 257° |
| 2026-05-08 11:48 | 29.82287 | 121.46221 | 19 ft | 3 kts | 251° |
| 2026-05-08 11:49 | 29.82263 | 121.46202 | 19 ft | 6 kts | 180° |
| 2026-05-08 11:49 | 29.82224 | 121.46201 | 19 ft | 1 kts | 183° |
| 2026-05-08 11:49 | 29.82219 | 121.46200 | 19 ft | 0 kts | 183° |